createdAt,value
2023-05-15T00:00:55.411Z,11.10
2023-05-15T00:03:20.211Z,11.00
2023-05-15T00:05:45.064Z,11.00
2023-05-15T00:08:09.675Z,11.00
2023-05-15T00:10:38.181Z,11.00
2023-05-15T00:13:04.364Z,10.90
2023-05-15T00:15:29.085Z,11.00
2023-05-15T00:17:53.536Z,10.90
2023-05-15T00:20:18.195Z,11.00
2023-05-15T00:22:42.702Z,11.00
2023-05-15T00:25:08.478Z,11.00
2023-05-15T00:27:33.503Z,11.00
2023-05-15T00:30:03.308Z,11.00
2023-05-15T00:32:29.204Z,11.10
2023-05-15T00:34:53.861Z,11.00
2023-05-15T00:37:18.410Z,11.00
2023-05-15T00:39:43.217Z,11.00
2023-05-15T00:42:09.146Z,11.00
2023-05-15T00:44:34.987Z,10.90
2023-05-15T00:47:02.354Z,10.90
2023-05-15T00:49:29.602Z,10.90
2023-05-15T00:51:54.665Z,10.80
2023-05-15T00:54:19.273Z,10.80
2023-05-15T00:56:46.299Z,10.80
2023-05-15T00:59:12.372Z,10.80
2023-05-15T01:01:37.179Z,10.80
2023-05-15T01:04:04.173Z,10.80
2023-05-15T01:06:28.792Z,10.70
2023-05-15T01:08:54.716Z,10.60
2023-05-15T01:11:19.589Z,10.60
2023-05-15T01:13:44.709Z,10.60
2023-05-15T01:16:10.340Z,10.50
2023-05-15T01:18:35.295Z,10.50
2023-05-15T01:21:40.972Z,10.50
2023-05-15T01:24:24.317Z,10.50
2023-05-15T01:27:17.266Z,10.60
2023-05-15T01:29:46.086Z,10.60
2023-05-15T01:32:25.958Z,10.60
2023-05-15T01:34:59.194Z,10.60
2023-05-15T01:37:27.942Z,10.50
2023-05-15T01:39:57.310Z,10.50
2023-05-15T01:42:28.881Z,10.50
2023-05-15T01:44:56.540Z,10.60
2023-05-15T01:47:23.390Z,10.60
2023-05-15T01:49:51.098Z,10.60
2023-05-15T01:52:20.198Z,10.60
2023-05-15T01:54:46.068Z,10.60
2023-05-15T01:57:11.765Z,10.70
2023-05-15T01:59:39.505Z,10.70
2023-05-15T02:02:07.531Z,10.60
2023-05-15T02:04:33.058Z,10.60
2023-05-15T02:06:58.579Z,10.60
2023-05-15T02:09:25.322Z,10.70
2023-05-15T02:11:50.403Z,10.50
2023-05-15T02:14:17.689Z,10.40
2023-05-15T02:16:45.076Z,10.30
2023-05-15T02:19:10.330Z,10.20
2023-05-15T02:21:35.179Z,10.10
2023-05-15T02:24:00.041Z,10.10
2023-05-15T02:26:33.035Z,10.10
2023-05-15T02:29:17.957Z,10.20
2023-05-15T02:31:52.825Z,10.20
2023-05-15T02:34:25.429Z,10.10
2023-05-15T02:37:04.094Z,10.10
2023-05-15T02:39:43.553Z,10.20
2023-05-15T02:42:11.239Z,10.20
2023-05-15T02:44:38.744Z,10.20
2023-05-15T02:47:06.189Z,10.20
2023-05-15T02:49:31.544Z,10.10
2023-05-15T02:52:00.853Z,10.00
2023-05-15T02:54:28.745Z,10.00
2023-05-15T02:56:53.374Z,9.90
2023-05-15T02:59:20.182Z,10.00
2023-05-15T03:01:44.805Z,10.00
2023-05-15T03:04:12.386Z,10.00
2023-05-15T03:06:39.873Z,9.90
2023-05-15T03:09:04.910Z,9.90
2023-05-15T03:11:32.427Z,10.00
2023-05-15T03:14:01.850Z,9.90
2023-05-15T03:16:26.638Z,9.80
2023-05-15T03:18:52.352Z,9.70
2023-05-15T03:21:18.519Z,9.70
2023-05-15T03:23:45.911Z,9.80
2023-05-15T03:26:16.042Z,9.80
2023-05-15T03:28:45.043Z,9.90
2023-05-15T03:31:09.856Z,9.90
2023-05-15T03:33:34.741Z,9.90
2023-05-15T03:35:59.317Z,9.90
2023-05-15T03:38:25.448Z,9.90
2023-05-15T03:40:51.286Z,10.00
2023-05-15T03:43:15.973Z,10.00
2023-05-15T03:45:40.901Z,10.00
2023-05-15T03:48:08.233Z,10.00
2023-05-15T03:50:33.357Z,10.00
2023-05-15T03:52:58.527Z,10.00
2023-05-15T03:55:27.185Z,10.00
2023-05-15T03:57:52.008Z,10.10
2023-05-15T04:00:22.587Z,10.10
2023-05-15T04:02:47.677Z,10.10
2023-05-15T04:05:12.380Z,10.30
2023-05-15T04:07:38.141Z,10.30
2023-05-15T04:10:10.894Z,10.40
2023-05-15T04:12:37.587Z,10.50
2023-05-15T04:15:15.342Z,10.60
2023-05-15T04:17:40.297Z,10.60
2023-05-15T04:20:07.530Z,10.60
2023-05-15T04:22:32.172Z,10.60
2023-05-15T04:25:00.523Z,10.60
2023-05-15T04:27:29.797Z,10.80
2023-05-15T04:29:55.740Z,11.20
2023-05-15T04:32:20.510Z,11.40
2023-05-15T04:34:45.126Z,11.50
2023-05-15T04:37:09.925Z,11.80
2023-05-15T04:39:34.645Z,11.80
2023-05-15T04:41:59.440Z,11.80
2023-05-15T04:44:23.892Z,11.80
2023-05-15T04:46:49.991Z,11.80
2023-05-15T04:49:14.953Z,11.80
2023-05-15T04:51:41.821Z,11.80
2023-05-15T04:54:06.953Z,11.80
2023-05-15T04:56:31.627Z,11.80
2023-05-15T04:58:56.143Z,11.80
2023-05-15T05:01:27.428Z,11.80
2023-05-15T05:03:53.982Z,11.90
2023-05-15T05:06:19.254Z,11.90
2023-05-15T05:08:43.901Z,12.00
2023-05-15T05:11:08.486Z,12.00
2023-05-15T05:13:33.212Z,12.10
2023-05-15T05:15:57.856Z,12.10
2023-05-15T05:18:22.438Z,12.10
2023-05-15T05:20:48.348Z,12.40
2023-05-15T05:23:14.930Z,12.60
2023-05-15T05:25:39.576Z,12.90
2023-05-15T05:28:04.137Z,13.10
2023-05-15T05:30:28.887Z,13.40
2023-05-15T05:32:53.368Z,13.50
2023-05-15T05:35:18.091Z,13.70
2023-05-15T05:37:45.593Z,13.80
2023-05-15T05:40:13.011Z,14.10
2023-05-15T05:42:39.980Z,14.10
2023-05-15T05:45:07.455Z,14.40
2023-05-15T05:47:32.312Z,14.60
2023-05-15T05:49:57.118Z,14.70
2023-05-15T05:52:21.834Z,14.80
2023-05-15T05:54:48.250Z,14.80
2023-05-15T05:57:12.943Z,14.90
2023-05-15T05:59:37.578Z,14.90
2023-05-15T06:02:02.330Z,15.10
2023-05-15T06:04:29.177Z,15.20
2023-05-15T06:06:54.333Z,15.20
2023-05-15T06:09:19.381Z,15.40
2023-05-15T06:11:45.725Z,15.60
2023-05-15T06:14:10.578Z,15.70
2023-05-15T06:16:35.194Z,15.80
2023-05-15T06:18:59.836Z,15.90
2023-05-15T06:21:24.595Z,16.10
2023-05-15T06:23:49.106Z,16.40
2023-05-15T06:26:13.733Z,16.50
2023-05-15T06:28:39.871Z,16.50
2023-05-15T06:31:04.757Z,16.20
2023-05-15T06:33:30.037Z,16.30
2023-05-15T06:35:54.724Z,16.40
2023-05-15T06:38:19.253Z,16.40
2023-05-15T06:40:44.448Z,16.40
2023-05-15T06:43:12.406Z,16.30
2023-05-15T06:45:38.516Z,16.30
2023-05-15T06:48:03.010Z,16.40
2023-05-15T06:50:27.954Z,16.50
2023-05-15T06:52:53.309Z,16.80
2023-05-15T06:55:18.061Z,17.00
2023-05-15T06:57:42.922Z,17.40
2023-05-15T07:00:08.822Z,17.30
2023-05-15T07:02:38.457Z,17.50
2023-05-15T07:05:03.345Z,17.50
2023-05-15T07:07:31.306Z,17.30
2023-05-15T07:09:56.061Z,17.30
2023-05-15T07:12:20.707Z,17.20
2023-05-15T07:14:49.755Z,17.10
2023-05-15T07:17:17.212Z,17.00
2023-05-15T07:19:46.098Z,17.10
2023-05-15T07:22:13.645Z,17.30
2023-05-15T07:24:40.388Z,17.30
2023-05-15T07:27:09.960Z,17.40
2023-05-15T07:29:34.676Z,17.60
2023-05-15T07:32:01.441Z,17.70
2023-05-15T07:34:26.445Z,17.80
2023-05-15T07:36:52.403Z,18.00
2023-05-15T07:39:17.237Z,18.10
2023-05-15T07:41:41.962Z,18.20
2023-05-15T07:44:06.963Z,18.20
2023-05-15T07:46:31.748Z,18.40
2023-05-15T07:49:01.446Z,18.50
2023-05-15T07:51:26.102Z,18.50
2023-05-15T07:53:52.891Z,18.60
2023-05-15T07:56:23.838Z,18.50
2023-05-15T07:59:04.805Z,18.40
2023-05-15T08:01:30.769Z,18.50
2023-05-15T08:03:58.505Z,18.40
2023-05-15T08:06:23.351Z,18.40
2023-05-15T08:08:47.976Z,18.60
2023-05-15T08:11:14.436Z,18.90
2023-05-15T08:13:39.144Z,19.10
2023-05-15T08:16:07.245Z,19.20
2023-05-15T08:18:34.245Z,19.10
2023-05-15T08:20:58.904Z,19.10
2023-05-15T08:23:24.350Z,19.10
2023-05-15T08:25:48.930Z,19.40
2023-05-15T08:28:15.300Z,19.60
2023-05-15T08:30:40.058Z,19.80
2023-05-15T08:33:04.798Z,19.60
2023-05-15T08:35:29.802Z,19.40
2023-05-15T08:37:54.732Z,19.10
2023-05-15T08:40:25.580Z,19.20
2023-05-15T08:43:07.413Z,19.10
2023-05-15T08:45:33.624Z,19.20
2023-05-15T08:48:02.644Z,19.30
2023-05-15T08:50:28.025Z,19.40
2023-05-15T08:52:59.311Z,19.50
2023-05-15T08:55:24.490Z,19.40
2023-05-15T08:57:50.212Z,19.40
2023-05-15T09:00:16.106Z,19.40
2023-05-15T09:02:43.075Z,19.60
2023-05-15T09:05:09.721Z,19.80
2023-05-15T09:07:39.505Z,20.10
2023-05-15T09:10:04.907Z,20.10
2023-05-15T09:12:35.904Z,19.90
2023-05-15T09:15:12.474Z,20.10
2023-05-15T09:17:44.750Z,20.30
2023-05-15T09:20:27.092Z,20.30
2023-05-15T09:22:54.113Z,20.20
2023-05-15T09:25:34.640Z,20.30
2023-05-15T09:27:59.247Z,20.20
2023-05-15T09:30:23.790Z,20.30
2023-05-15T09:32:52.888Z,20.50
2023-05-15T09:35:32.348Z,20.50
2023-05-15T09:38:01.051Z,20.20
2023-05-15T09:40:29.631Z,20.20
2023-05-15T09:42:56.467Z,20.30
2023-05-15T09:45:21.200Z,20.50
2023-05-15T09:47:47.507Z,20.50
2023-05-15T09:50:22.938Z,20.50
2023-05-15T09:52:47.664Z,20.60
2023-05-15T09:55:17.410Z,20.80
2023-05-15T09:57:42.107Z,20.80
2023-05-15T10:00:12.531Z,20.80
2023-05-15T10:02:38.092Z,20.90
2023-05-15T10:05:02.821Z,21.00
2023-05-15T10:07:34.618Z,21.00
2023-05-15T10:10:03.516Z,21.30
2023-05-15T10:12:32.698Z,21.30
2023-05-15T10:14:59.663Z,21.50
2023-05-15T10:17:24.568Z,21.60
2023-05-15T10:19:58.317Z,21.80
2023-05-15T10:22:25.015Z,21.90
2023-05-15T10:24:57.333Z,21.90
2023-05-15T10:27:23.390Z,21.90
2023-05-15T10:29:48.486Z,22.10
2023-05-15T10:32:15.208Z,22.20
2023-05-15T10:34:40.024Z,22.20
2023-05-15T10:37:05.931Z,22.20
2023-05-15T10:39:31.547Z,22.20
2023-05-15T10:41:59.247Z,22.30
2023-05-15T10:44:24.699Z,22.10
2023-05-15T10:46:50.780Z,22.10
2023-05-15T10:49:15.679Z,22.20
2023-05-15T10:51:41.189Z,22.30
2023-05-15T10:54:06.349Z,22.20
2023-05-15T10:56:32.300Z,22.10
2023-05-15T10:58:58.612Z,22.10
2023-05-15T11:01:34.340Z,22.20
2023-05-15T11:04:26.592Z,22.10
2023-05-15T11:06:52.539Z,22.20
2023-05-15T11:09:39.628Z,22.60
2023-05-15T11:12:12.049Z,22.80
2023-05-15T11:14:40.985Z,22.80
2023-05-15T11:17:08.216Z,22.90
2023-05-15T11:20:01.539Z,23.00
2023-05-15T11:22:36.192Z,23.10
2023-05-15T11:25:05.640Z,23.30
2023-05-15T11:27:33.957Z,23.10
2023-05-15T11:30:13.986Z,23.20
2023-05-15T11:32:46.406Z,23.40
2023-05-15T11:35:12.159Z,23.90
2023-05-15T11:37:39.745Z,24.00
2023-05-15T11:40:08.025Z,24.10
2023-05-15T11:42:33.583Z,24.10
2023-05-15T11:44:58.725Z,24.20
2023-05-15T11:47:25.163Z,24.30
2023-05-15T11:49:50.381Z,24.40
2023-05-15T11:52:15.196Z,24.70
2023-05-15T11:54:40.294Z,24.70
2023-05-15T11:57:08.785Z,24.50
2023-05-15T11:59:35.793Z,24.50
2023-05-15T12:02:08.205Z,24.50
2023-05-15T12:04:36.369Z,24.60
2023-05-15T12:07:03.971Z,24.60
2023-05-15T12:09:31.547Z,24.70
2023-05-15T12:11:57.211Z,24.70
2023-05-15T12:14:28.905Z,24.60
2023-05-15T12:16:54.242Z,24.40
2023-05-15T12:19:19.085Z,24.30
2023-05-15T12:21:50.000Z,24.30
2023-05-15T12:24:16.975Z,24.50
2023-05-15T12:26:41.949Z,24.70
2023-05-15T12:29:09.751Z,24.70
2023-05-15T12:31:36.764Z,24.60
2023-05-15T12:34:01.615Z,24.80
2023-05-15T12:36:31.372Z,24.50
2023-05-15T12:38:57.674Z,24.30
2023-05-15T12:41:22.458Z,24.30
2023-05-15T12:43:47.236Z,24.50
2023-05-15T12:46:15.623Z,24.70
2023-05-15T12:48:41.944Z,24.90
2023-05-15T12:51:08.310Z,24.90
2023-05-15T12:53:34.340Z,24.60
2023-05-15T12:56:00.390Z,24.50
2023-05-15T12:58:25.159Z,24.50
2023-05-15T13:00:51.669Z,24.30
2023-05-15T13:03:16.683Z,24.30
2023-05-15T13:05:44.542Z,24.30
2023-05-15T13:08:09.269Z,24.40
2023-05-15T13:10:35.638Z,24.50
2023-05-15T13:13:02.033Z,24.40
2023-05-15T13:15:32.017Z,24.40
2023-05-15T13:18:01.019Z,24.50
2023-05-15T13:20:26.292Z,24.40
2023-05-15T13:22:51.417Z,24.20
2023-05-15T13:25:20.225Z,24.20
2023-05-15T13:27:44.993Z,24.40
2023-05-15T13:30:13.153Z,24.60
2023-05-15T13:32:41.367Z,24.20
2023-05-15T13:35:06.392Z,24.00
2023-05-15T13:37:31.318Z,24.20
2023-05-15T13:39:56.625Z,24.10
2023-05-15T13:42:21.431Z,24.10
2023-05-15T13:44:46.732Z,24.10
2023-05-15T13:47:23.204Z,24.00
2023-05-15T13:49:56.237Z,23.90
2023-05-15T13:52:24.585Z,24.00
2023-05-15T13:54:55.455Z,23.90
2023-05-15T13:57:34.060Z,23.90
2023-05-15T14:00:05.186Z,23.80
2023-05-15T14:02:35.764Z,23.60
2023-05-15T14:05:01.166Z,23.60
2023-05-15T14:07:29.769Z,23.60
2023-05-15T14:09:54.514Z,23.50
2023-05-15T14:12:20.436Z,23.50
2023-05-15T14:14:47.292Z,23.50
2023-05-15T14:17:12.395Z,23.40
2023-05-15T14:19:38.621Z,23.40
2023-05-15T14:22:10.407Z,23.40
2023-05-15T14:24:35.062Z,23.30
2023-05-15T14:26:59.579Z,23.30
2023-05-15T14:29:24.144Z,23.20
2023-05-15T14:31:48.865Z,23.20
2023-05-15T14:34:13.698Z,23.20
2023-05-15T14:36:39.656Z,23.30
2023-05-15T14:39:06.728Z,23.30
2023-05-15T14:41:31.603Z,23.30
2023-05-15T14:43:56.373Z,23.40
2023-05-15T14:46:21.338Z,23.30
2023-05-15T14:48:45.973Z,23.40
2023-05-15T14:51:10.559Z,23.40
2023-05-15T14:53:36.690Z,23.50
2023-05-15T14:56:03.352Z,23.50
2023-05-15T14:58:30.733Z,23.50
2023-05-15T15:00:55.282Z,23.30
2023-05-15T15:03:22.254Z,23.30
2023-05-15T15:05:47.118Z,23.20
2023-05-15T15:08:12.635Z,23.30
2023-05-15T15:10:40.011Z,23.40
2023-05-15T15:13:05.709Z,23.30
2023-05-15T15:15:31.279Z,23.40
2023-05-15T15:17:57.446Z,23.50
2023-05-15T15:20:23.522Z,23.50
2023-05-15T15:22:51.552Z,23.30
2023-05-15T15:25:19.399Z,23.20
2023-05-15T15:27:47.803Z,23.10
2023-05-15T15:30:13.492Z,23.10
2023-05-15T15:32:39.465Z,23.00
2023-05-15T15:35:04.722Z,22.90
2023-05-15T15:37:32.385Z,23.00
2023-05-15T15:39:57.068Z,22.90
2023-05-15T15:42:22.905Z,22.80
2023-05-15T15:44:49.210Z,22.70
2023-05-15T15:47:13.973Z,22.60
2023-05-15T15:49:38.518Z,22.40
2023-05-15T15:52:03.643Z,22.30
2023-05-15T15:54:28.865Z,22.30
2023-05-15T15:56:53.854Z,22.20
2023-05-15T15:59:18.552Z,22.20
2023-05-15T16:01:44.969Z,22.20
2023-05-15T16:04:09.758Z,22.10
2023-05-15T16:06:35.417Z,22.00
2023-05-15T16:08:59.875Z,22.00
2023-05-15T16:11:26.432Z,21.90
2023-05-15T16:13:51.035Z,21.80
2023-05-15T16:16:15.945Z,21.70
2023-05-15T16:18:42.416Z,21.70
2023-05-15T16:21:10.236Z,21.60
2023-05-15T16:23:36.210Z,21.60
2023-05-15T16:26:01.494Z,21.60
2023-05-15T16:28:26.131Z,21.50
2023-05-15T16:30:52.025Z,21.40
2023-05-15T16:33:17.637Z,21.30
2023-05-15T16:35:43.891Z,21.20
2023-05-15T16:38:08.544Z,21.20
2023-05-15T16:40:33.187Z,21.10
2023-05-15T16:42:57.962Z,21.10
2023-05-15T16:45:25.507Z,20.90
2023-05-15T16:47:50.197Z,20.90
2023-05-15T16:50:14.950Z,20.80
2023-05-15T16:52:45.908Z,20.70
2023-05-15T16:55:11.093Z,20.60
2023-05-15T16:57:36.322Z,20.50
2023-05-15T17:00:01.232Z,20.40
2023-05-15T17:02:31.085Z,20.30
2023-05-15T17:07:45.607Z,20.20
2023-05-15T17:10:11.989Z,20.10
2023-05-15T17:12:40.127Z,20.10
2023-05-15T17:15:07.905Z,20.00
2023-05-15T17:17:33.478Z,20.00
2023-05-15T17:20:03.019Z,20.10
2023-05-15T17:22:29.518Z,20.00
2023-05-15T17:24:56.590Z,19.90
2023-05-15T17:27:22.236Z,19.90
2023-05-15T17:29:47.770Z,19.80
2023-05-15T17:32:13.126Z,19.70
2023-05-15T17:34:38.453Z,19.50
2023-05-15T17:37:03.870Z,19.50
2023-05-15T17:39:29.241Z,19.40
2023-05-15T17:41:56.884Z,19.40
2023-05-15T17:44:28.072Z,19.40
2023-05-15T17:46:53.860Z,19.30
2023-05-15T17:49:19.233Z,19.30
2023-05-15T17:51:44.565Z,19.20
2023-05-15T17:54:16.025Z,19.20
2023-05-15T17:56:41.139Z,19.00
2023-05-15T17:59:08.006Z,18.90
2023-05-15T18:01:33.392Z,18.80
2023-05-15T18:04:07.315Z,18.80
2023-05-15T18:06:34.659Z,18.80
2023-05-15T18:09:01.126Z,18.80
2023-05-15T18:11:27.238Z,18.80
2023-05-15T18:13:52.018Z,18.80
2023-05-15T18:16:18.994Z,18.80
2023-05-15T18:18:43.907Z,18.80
2023-05-15T18:21:11.417Z,18.80
2023-05-15T18:23:37.532Z,18.80
2023-05-15T18:26:02.437Z,18.80
2023-05-15T18:28:27.180Z,18.70
2023-05-15T18:30:52.068Z,18.60
2023-05-15T18:33:18.357Z,18.60
2023-05-15T18:35:43.054Z,18.50
2023-05-15T18:38:07.763Z,18.50
2023-05-15T18:40:32.450Z,18.40
2023-05-15T18:42:57.378Z,18.30
2023-05-15T18:45:22.370Z,18.30
2023-05-15T18:47:46.996Z,18.20
2023-05-15T18:50:14.160Z,18.10
2023-05-15T18:52:38.696Z,18.10
2023-05-15T18:55:03.277Z,18.00
2023-05-15T18:57:29.439Z,18.00
2023-05-15T18:59:54.699Z,17.90
2023-05-15T19:02:19.168Z,17.90
2023-05-15T19:04:43.854Z,17.80
2023-05-15T19:07:09.776Z,17.70
2023-05-15T19:09:34.757Z,17.70
2023-05-15T19:12:02.463Z,17.60
2023-05-15T19:14:27.115Z,17.60
2023-05-15T19:16:51.907Z,17.60
2023-05-15T19:19:16.896Z,17.50
2023-05-15T19:21:41.794Z,17.50
2023-05-15T19:24:08.601Z,17.50
2023-05-15T19:26:33.144Z,17.40
2023-05-15T19:28:57.865Z,17.40
2023-05-15T19:31:31.365Z,17.30
2023-05-15T19:33:56.657Z,17.30
2023-05-15T19:36:22.291Z,17.30
2023-05-15T19:38:46.848Z,17.20
2023-05-15T19:41:14.640Z,17.20
2023-05-15T19:43:39.816Z,17.10
2023-05-15T19:46:04.483Z,17.10
2023-05-15T19:48:29.235Z,17.10
2023-05-15T19:50:53.856Z,17.00
2023-05-15T19:53:18.496Z,17.00
2023-05-15T19:55:43.273Z,17.00
2023-05-15T19:58:09.345Z,17.00
2023-05-15T20:00:33.872Z,17.00
2023-05-15T20:02:58.723Z,16.90
2023-05-15T20:05:23.233Z,16.80
2023-05-15T20:07:48.048Z,16.80
2023-05-15T20:10:14.074Z,16.70
2023-05-15T20:12:38.691Z,16.60
2023-05-15T20:15:05.095Z,16.60
2023-05-15T20:17:30.278Z,16.50
2023-05-15T20:19:54.896Z,16.40
2023-05-15T20:22:19.857Z,16.30
2023-05-15T20:24:45.041Z,16.30
2023-05-15T20:27:09.643Z,16.30
2023-05-15T20:29:34.089Z,16.20
2023-05-15T20:32:00.492Z,16.20
2023-05-15T20:34:24.986Z,16.10
2023-05-15T20:36:52.641Z,16.10
2023-05-15T20:39:17.369Z,16.00
2023-05-15T20:41:41.905Z,15.90
2023-05-15T20:44:06.675Z,15.90
2023-05-15T20:46:31.930Z,15.90
2023-05-15T20:48:57.989Z,15.90
2023-05-15T20:51:22.924Z,15.80
2023-05-15T20:53:47.283Z,15.80
2023-05-15T20:56:11.879Z,15.70
2023-05-15T20:58:36.757Z,15.70
2023-05-15T21:01:02.856Z,15.70
2023-05-15T21:03:27.478Z,15.60
2023-05-15T21:05:54.837Z,15.60
2023-05-15T21:08:21.565Z,15.60
2023-05-15T21:10:51.043Z,15.70
2023-05-15T21:13:15.756Z,15.60
2023-05-15T21:15:40.218Z,15.50
2023-05-15T21:18:10.725Z,15.30
2023-05-15T21:20:35.471Z,15.30
2023-05-15T21:23:01.325Z,15.20
2023-05-15T21:25:26.035Z,15.20
2023-05-15T21:27:50.487Z,15.20
2023-05-15T21:30:15.975Z,15.10
2023-05-15T21:32:40.590Z,15.10
2023-05-15T21:35:05.396Z,15.10
2023-05-15T21:37:29.935Z,15.00
2023-05-15T21:39:56.912Z,15.00
2023-05-15T21:42:21.399Z,14.90
2023-05-15T21:44:46.002Z,14.90
2023-05-15T21:47:10.984Z,14.90
2023-05-15T21:49:35.575Z,14.90
2023-05-15T21:52:00.151Z,14.90
2023-05-15T21:54:24.686Z,14.80
2023-05-15T21:57:15.028Z,14.80
2023-05-15T21:59:39.683Z,14.80
2023-05-15T22:02:04.381Z,14.80
2023-05-15T22:04:30.380Z,14.80
2023-05-15T22:06:54.939Z,14.90
2023-05-15T22:09:19.457Z,14.90
2023-05-15T22:11:44.235Z,14.90
2023-05-15T22:14:30.454Z,14.80
2023-05-15T22:16:55.128Z,14.80
2023-05-15T22:19:32.226Z,14.80
2023-05-15T22:21:58.347Z,14.80
2023-05-15T22:24:22.941Z,14.80
2023-05-15T22:26:47.507Z,14.70
2023-05-15T22:29:11.927Z,14.70
2023-05-15T22:31:37.973Z,14.60
2023-05-15T22:34:02.577Z,14.60
2023-05-15T22:36:27.555Z,14.50
2023-05-15T22:38:52.090Z,14.40
2023-05-15T22:41:16.720Z,14.40
2023-05-15T22:43:41.275Z,14.40
2023-05-15T22:46:05.926Z,14.40
2023-05-15T22:48:32.630Z,14.40
2023-05-15T22:50:58.387Z,14.50
2023-05-15T22:53:22.943Z,14.50
2023-05-15T22:55:47.561Z,14.50
2023-05-15T22:58:12.455Z,14.40
2023-05-15T23:00:37.054Z,14.40
2023-05-15T23:03:01.697Z,14.40
2023-05-15T23:05:27.839Z,14.30
2023-05-15T23:08:09.827Z,14.30
2023-05-15T23:10:56.111Z,14.20
2023-05-15T23:13:21.008Z,14.10
2023-05-15T23:15:46.564Z,14.20
2023-05-15T23:18:11.833Z,14.20
2023-05-15T23:20:37.822Z,14.10
2023-05-15T23:23:02.302Z,14.10
2023-05-15T23:25:26.826Z,14.00
2023-05-15T23:27:51.412Z,14.00
2023-05-15T23:30:16.751Z,14.00
2023-05-15T23:32:41.385Z,13.90
2023-05-15T23:35:06.398Z,13.90
2023-05-15T23:37:32.528Z,13.90
2023-05-15T23:39:57.119Z,13.90
2023-05-15T23:42:21.914Z,13.90
2023-05-15T23:44:46.496Z,13.90
2023-05-15T23:47:11.122Z,13.90
2023-05-15T23:49:35.889Z,13.90
2023-05-15T23:52:00.632Z,13.90
2023-05-15T23:54:26.681Z,13.80
2023-05-15T23:56:51.199Z,13.80
2023-05-15T23:59:15.726Z,13.70
